Comanche, TX

12:38 AM CST on January 24, 2018 (GMT -0600)
Comanche

Weather History for KMKN - October, 2012

Change the Weather History Date:

Wednesday, October 3, 2012

  Actual Average (KSEP) Record (KSEP)
Temperature  
Mean Temperature 68 °F -  
Max Temperature 82 °F 83 °F 103 °F (1951)
Min Temperature 55 °F 58 °F 39 °F (1975)
Cooling Degree Days 4    
Growing Degree Days 18 (Base 50)    
Moisture  
Dew Point 51 °F    
Average Humidity 56    
Maximum Humidity 88    
Minimum Humidity 28    
Precipitation  
Precipitation 0.00 in - - ()
Sea Level Pressure  
Sea Level Pressure 29.97 in    
Wind  
Wind Speed 7 mph (South)    
Max Wind Speed 15 mph    
Max Gust Speed 22 mph    
Visibility 10 miles    
Events      
Averages and records for this station are not official NWS values.
T = Trace of Precipitation, MM = Missing Value Source: NWS Daily Summary

Daily Weather History Graph

Daily Weather History Graph

Search for Another Location

Airport or City:

Trip Planner

Search our weather history database for the weather conditions in past years. The results will help you decide how hot, cold, wet, or windy it might be!

Date:

Astronomy

Oct. 03, 2012 Rise Set
Actual Time 7:29 AM CDT 7:16 PM CDT
Civil Twilight 7:05 AM CDT 7:40 PM CDT
Nautical Twilight 6:37 AM CDT 8:08 PM CDT
Astronomical Twilight 6:08 AM CDT 8:36 PM CDT
Moon 9:24 PM CDT (10/3) 10:40 AM CDT (10/3)
Length of Visible Light 12h 34m
Length of Day
11h 46m
Waning Gibbous, 88% of the Moon is Illuminated
Oct 3
Waning Gibbous
Oct 8
Last Quarter
Oct 15
New
Oct 21
First Quarter
Oct 29
Full

Hourly Weather History & Observations

Time (CDT) Temp. Dew Point Humidity Pressure Visibility Wind Dir Wind Speed Gust Speed Precip Events Conditions
12:15 AM 64.4 °F 48.2 °F 56% 29.99 in 10.0 mi Calm Calm - N/A   Clear
12:35 AM 60.8 °F 50.0 °F 68% 29.98 in 10.0 mi Calm Calm - N/A   Clear
12:55 AM 62.6 °F 50.0 °F 63% 29.98 in 10.0 mi SSW 4.6 mph - N/A   Clear
1:15 AM 60.8 °F 50.0 °F 68% 29.98 in 10.0 mi SSW 4.6 mph - N/A   Clear
1:35 AM 59.0 °F 50.0 °F 72% 29.98 in 10.0 mi SSW 4.6 mph - N/A   Clear
1:55 AM 59.0 °F 50.0 °F 72% 29.98 in 10.0 mi SSW 5.8 mph - N/A   Clear
2:15 AM 60.8 °F 50.0 °F 68% 29.98 in 10.0 mi SSW 4.6 mph - N/A   Clear
2:35 AM 59.0 °F 50.0 °F 72% 29.98 in 10.0 mi SSW 4.6 mph - N/A   Clear
2:55 AM 59.0 °F 50.0 °F 72% 29.97 in 10.0 mi SSW 6.9 mph - N/A   Clear
3:15 AM 55.4 °F 50.0 °F 82% 29.97 in 10.0 mi SSW 6.9 mph - N/A   Clear
3:35 AM 57.2 °F 50.0 °F 77% 29.97 in 10.0 mi South 5.8 mph - N/A   Clear
3:55 AM 55.4 °F 50.0 °F 82% 29.96 in 10.0 mi SSW 6.9 mph - N/A   Clear
4:15 AM 55.4 °F 51.8 °F 88% 29.96 in 10.0 mi SSW 6.9 mph - N/A   Clear
4:35 AM 55.4 °F 51.8 °F 88% 29.96 in 10.0 mi South 6.9 mph - N/A   Clear
4:55 AM 55.4 °F 51.8 °F 88% 29.96 in 10.0 mi South 4.6 mph - N/A   Clear
5:15 AM 55.4 °F 51.8 °F 88% 29.96 in 10.0 mi SSW 5.8 mph - N/A   Clear
5:35 AM 55.4 °F 51.8 °F 88% 29.97 in 10.0 mi SSW 8.1 mph - N/A   Clear
5:55 AM 57.2 °F 51.8 °F 82% 29.97 in 10.0 mi SSW 8.1 mph - N/A   Clear
6:15 AM 57.2 °F 51.8 °F 82% 29.97 in 10.0 mi South 8.1 mph - N/A   Clear
6:35 AM 57.2 °F 51.8 °F 82% 29.97 in 10.0 mi South 6.9 mph - N/A   Clear
6:55 AM 57.2 °F 51.8 °F 82% 29.98 in 10.0 mi SSW 6.9 mph - N/A   Clear
7:15 AM 59.0 °F 51.8 °F 77% 29.99 in 10.0 mi South 8.1 mph - N/A   Clear
7:35 AM 59.0 °F 51.8 °F 77% 29.99 in 10.0 mi South 8.1 mph - N/A   Clear
7:55 AM 59.0 °F 51.8 °F 77% 29.99 in 10.0 mi South 8.1 mph - N/A   Clear
8:15 AM 59.0 °F 51.8 °F 77% 29.99 in 10.0 mi South 6.9 mph - N/A   Clear
8:35 AM 60.8 °F 51.8 °F 72% 29.99 in 10.0 mi SSW 9.2 mph - N/A   Clear
8:55 AM 62.6 °F 53.6 °F 72% 30.00 in 10.0 mi South 10.4 mph - N/A   Clear
9:55 AM 69.8 °F 53.6 °F 56% 30.02 in 10.0 mi South 9.2 mph - N/A   Clear
10:15 AM 71.6 °F 51.8 °F 50% 30.02 in 10.0 mi South 13.8 mph 19.6 mph N/A   Clear
10:55 AM 73.4 °F 50.0 °F 44% 30.02 in 10.0 mi South 15.0 mph 20.7 mph N/A   Clear
11:15 AM 75.2 °F 50.0 °F 41% 30.02 in 10.0 mi South 15.0 mph - N/A   Clear
11:35 AM 77.0 °F 50.0 °F 39% 30.02 in 10.0 mi South 12.7 mph - N/A   Clear
11:55 AM 77.0 °F 48.2 °F 36% 30.01 in 10.0 mi South 12.7 mph - N/A   Clear
12:15 PM 78.8 °F 48.2 °F 34% 30.00 in 10.0 mi SSE 15.0 mph - N/A   Clear
12:35 PM 78.8 °F 48.2 °F 34% 30.00 in 10.0 mi South 12.7 mph 18.4 mph N/A   Clear
12:55 PM 80.6 °F 48.2 °F 32% 29.99 in 10.0 mi South 11.5 mph 18.4 mph N/A   Clear
1:15 PM 80.6 °F 48.2 °F 32% 29.98 in 10.0 mi South 10.4 mph 19.6 mph N/A   Clear
1:35 PM 82.4 °F 48.2 °F 30% 29.97 in 10.0 mi South 6.9 mph 17.3 mph N/A   Clear
1:55 PM 82.4 °F 46.4 °F 28% 29.97 in 10.0 mi SSE 10.4 mph 17.3 mph N/A   Clear
2:15 PM 82.4 °F 46.4 °F 28% 29.96 in 10.0 mi SSE 8.1 mph 17.3 mph N/A   Clear
2:35 PM 82.4 °F 48.2 °F 30% 29.95 in 10.0 mi SSE 11.5 mph 17.3 mph N/A   Clear
2:55 PM 82.4 °F 46.4 °F 28% 29.95 in 10.0 mi SSE 9.2 mph 18.4 mph N/A   Clear
3:15 PM 82.4 °F 48.2 °F 30% 29.94 in 10.0 mi South 10.4 mph 17.3 mph N/A   Clear
3:35 PM 82.4 °F 48.2 °F 30% 29.94 in 10.0 mi SSE 12.7 mph 18.4 mph N/A   Clear
3:55 PM 82.4 °F 50.0 °F 32% 29.93 in 10.0 mi SSE 11.5 mph 20.7 mph N/A   Clear
4:15 PM 82.4 °F 50.0 °F 32% 29.93 in 10.0 mi South 13.8 mph 20.7 mph N/A   Clear
4:35 PM 82.4 °F 50.0 °F 32% 29.93 in 10.0 mi South 13.8 mph 20.7 mph N/A   Clear
4:55 PM 82.4 °F 50.0 °F 32% 29.93 in 10.0 mi South 13.8 mph 17.3 mph N/A   Clear
5:15 PM 82.4 °F 50.0 °F 32% 29.93 in 10.0 mi SSE 13.8 mph 20.7 mph N/A   Clear
5:35 PM 82.4 °F 50.0 °F 32% 29.93 in 10.0 mi South 15.0 mph 21.9 mph N/A   Clear
5:55 PM 80.6 °F 50.0 °F 34% 29.94 in 10.0 mi South 13.8 mph 18.4 mph N/A   Clear
6:15 PM 80.6 °F 50.0 °F 34% 29.94 in 10.0 mi South 12.7 mph 18.4 mph N/A   Clear
6:35 PM 80.6 °F 50.0 °F 34% 29.94 in 10.0 mi South 12.7 mph 17.3 mph N/A   Clear
6:55 PM 78.8 °F 51.8 °F 39% 29.94 in 10.0 mi South 9.2 mph - N/A   Clear
7:15 PM 77.0 °F 53.6 °F 44% 29.95 in 10.0 mi South 6.9 mph - N/A   Clear
7:35 PM 73.4 °F 53.6 °F 50% 29.96 in 10.0 mi SSE 6.9 mph - N/A   Clear
7:55 PM 73.4 °F 53.6 °F 50% 29.96 in 10.0 mi SSE 8.1 mph - N/A   Clear
8:15 PM 71.6 °F 53.6 °F 53% 29.97 in 10.0 mi SSE 5.8 mph - N/A   Clear
8:35 PM 69.8 °F 53.6 °F 56% 29.97 in 10.0 mi SSE 6.9 mph - N/A   Clear
8:55 PM 69.8 °F 53.6 °F 56% 29.97 in 10.0 mi SSE 9.2 mph - N/A   Clear
9:15 PM 69.8 °F 53.6 °F 56% 29.97 in 10.0 mi SSE 9.2 mph - N/A   Clear
9:35 PM 69.8 °F 53.6 °F 56% 29.97 in 10.0 mi SSE 9.2 mph - N/A   Clear
10:15 PM 69.8 °F 55.4 °F 60% 29.99 in 10.0 mi SSE 9.2 mph - N/A   Clear
10:35 PM 68.0 °F 55.4 °F 64% 29.99 in 10.0 mi SSE 6.9 mph - N/A   Clear
10:55 PM 68.0 °F 55.4 °F 64% 29.99 in 10.0 mi SSE 6.9 mph - N/A   Clear
11:15 PM 68.0 °F 55.4 °F 64% 29.99 in 10.0 mi SSE 6.9 mph - N/A   Clear
11:35 PM 68.0 °F 55.4 °F 64% 30.00 in 10.0 mi SSE 6.9 mph - N/A   Clear
11:55 PM 68.0 °F 55.4 °F 64% 30.00 in 10.0 mi SSE 8.1 mph - N/A   Clear